sensor_id;sensor_type;location;lat;lon;timestamp;pressure;altitude;pressure_sealevel;temperature;humidity
18850;BME280;4989;48.772;9.154;2022-12-18T00:04:36;99102.81;;;-2.26;100.00
18850;BME280;4989;48.772;9.154;2022-12-18T00:09:39;99112.66;;;-1.78;100.00
18850;BME280;4989;48.772;9.154;2022-12-18T00:14:42;99110.94;;;-1.57;100.00
18850;BME280;4989;48.772;9.154;2022-12-18T00:19:44;99122.19;;;-2.35;100.00
18850;BME280;4989;48.772;9.154;2022-12-18T00:24:47;99119.56;;;-3.33;100.00
18850;BME280;4989;48.772;9.154;2022-12-18T00:29:49;99101.81;;;-3.97;100.00
18850;BME280;4989;48.772;9.154;2022-12-18T00:34:52;99116.50;;;-3.04;100.00
18850;BME280;4989;48.772;9.154;2022-12-18T00:39:54;99126.19;;;-2.46;100.00
18850;BME280;4989;48.772;9.154;2022-12-18T00:44:57;99125.34;;;-3.09;100.00
18850;BME280;4989;48.772;9.154;2022-12-18T00:49:59;99128.59;;;-3.20;100.00
18850;BME280;4989;48.772;9.154;2022-12-18T00:55:02;99127.19;;;-3.54;100.00
18850;BME280;4989;48.772;9.154;2022-12-18T01:00:10;99126.28;;;-4.69;100.00
18850;BME280;4989;48.772;9.154;2022-12-18T01:05:13;99126.16;;;-5.10;100.00
18850;BME280;4989;48.772;9.154;2022-12-18T01:10:16;99125.59;;;-5.26;100.00
18850;BME280;4989;48.772;9.154;2022-12-18T01:15:19;99127.19;;;-4.92;100.00
18850;BME280;4989;48.772;9.154;2022-12-18T01:20:22;99116.59;;;-4.32;100.00
18850;BME280;4989;48.772;9.154;2022-12-18T01:25:24;99133.88;;;-4.34;100.00
18850;BME280;4989;48.772;9.154;2022-12-18T01:30:27;99136.44;;;-5.09;100.00
18850;BME280;4989;48.772;9.154;2022-12-18T01:35:30;99121.66;;;-4.49;100.00
18850;BME280;4989;48.772;9.154;2022-12-18T01:40:32;99132.03;;;-4.67;100.00
18850;BME280;4989;48.772;9.154;2022-12-18T01:45:35;99132.06;;;-5.32;100.00
18850;BME280;4989;48.772;9.154;2022-12-18T01:50:41;99131.50;;;-4.22;100.00
18850;BME280;4989;48.772;9.154;2022-12-18T01:55:56;99129.66;;;-3.58;100.00
18850;BME280;4989;48.772;9.154;2022-12-18T02:00:59;99123.72;;;-3.18;100.00
18850;BME280;4989;48.772;9.154;2022-12-18T02:17:27;99120.31;;;-3.55;100.00
18850;BME280;4989;48.772;9.154;2022-12-18T02:27:42;99124.31;;;-2.54;100.00
18850;BME280;4989;48.772;9.154;2022-12-18T02:32:50;99135.94;;;-2.95;100.00
18850;BME280;4989;48.772;9.154;2022-12-18T02:37:54;99148.09;;;-3.39;98.72
18850;BME280;4989;48.772;9.154;2022-12-18T02:43:24;99137.69;;;-4.27;100.00
18850;BME280;4989;48.772;9.154;2022-12-18T02:48:33;99144.44;;;-3.65;99.23
18850;BME280;4989;48.772;9.154;2022-12-18T02:53:55;99144.28;;;-3.83;98.63
18850;BME280;4989;48.772;9.154;2022-12-18T02:59:09;99150.72;;;-3.48;95.73
18850;BME280;4989;48.772;9.154;2022-12-18T03:04:36;99141.31;;;-3.67;94.50
18850;BME280;4989;48.772;9.154;2022-12-18T03:09:45;99136.09;;;-3.73;93.75
18850;BME280;4989;48.772;9.154;2022-12-18T03:15:04;99143.34;;;-3.51;93.55
18850;BME280;4989;48.772;9.154;2022-12-18T03:20:19;99161.13;;;-3.51;91.86
18850;BME280;4989;48.772;9.154;2022-12-18T03:25:23;99160.06;;;-3.50;93.30
18850;BME280;4989;48.772;9.154;2022-12-18T03:30:30;99164.88;;;-3.52;91.82
18850;BME280;4989;48.772;9.154;2022-12-18T03:35:39;99171.59;;;-4.38;95.59
18850;BME280;4989;48.772;9.154;2022-12-18T03:57:05;99164.75;;;-5.23;96.42
18850;BME280;4989;48.772;9.154;2022-12-18T04:02:10;99172.84;;;-5.33;98.17
18850;BME280;4989;48.772;9.154;2022-12-18T04:07:14;99168.34;;;-5.14;97.33
18850;BME280;4989;48.772;9.154;2022-12-18T04:12:18;99172.94;;;-5.81;100.00
18850;BME280;4989;48.772;9.154;2022-12-18T04:17:23;99163.59;;;-5.55;100.00
18850;BME280;4989;48.772;9.154;2022-12-18T04:22:26;99171.81;;;-4.99;97.33
18850;BME280;4989;48.772;9.154;2022-12-18T04:27:33;99172.75;;;-5.09;95.58
18850;BME280;4989;48.772;9.154;2022-12-18T04:32:38;99186.66;;;-5.36;97.19
18850;BME280;4989;48.772;9.154;2022-12-18T04:37:41;99194.44;;;-4.88;95.99
18850;BME280;4989;48.772;9.154;2022-12-18T04:42:44;99190.41;;;-4.86;94.44
18850;BME280;4989;48.772;9.154;2022-12-18T04:47:47;99185.78;;;-4.94;92.87
18850;BME280;4989;48.772;9.154;2022-12-18T04:52:49;99172.88;;;-5.76;96.53
18850;BME280;4989;48.772;9.154;2022-12-18T04:57:52;99161.03;;;-5.41;95.68
18850;BME280;4989;48.772;9.154;2022-12-18T05:02:55;99155.94;;;-5.37;93.30
18850;BME280;4989;48.772;9.154;2022-12-18T05:07:57;99163.50;;;-5.12;93.07
18850;BME280;4989;48.772;9.154;2022-12-18T05:13:00;99173.22;;;-4.88;92.01
18850;BME280;4989;48.772;9.154;2022-12-18T05:18:03;99167.59;;;-4.68;90.95
18850;BME280;4989;48.772;9.154;2022-12-18T05:23:06;99177.56;;;-5.49;92.44
18850;BME280;4989;48.772;9.154;2022-12-18T05:28:08;99190.50;;;-5.90;94.00
18850;BME280;4989;48.772;9.154;2022-12-18T05:33:11;99204.63;;;-5.33;93.22
18850;BME280;4989;48.772;9.154;2022-12-18T05:38:14;99204.50;;;-5.23;90.47
18850;BME280;4989;48.772;9.154;2022-12-18T05:43:17;99204.44;;;-5.61;92.22
18850;BME280;4989;48.772;9.154;2022-12-18T05:48:23;99215.59;;;-6.36;95.74
18850;BME280;4989;48.772;9.154;2022-12-18T05:53:25;99194.28;;;-6.74;97.91
18850;BME280;4989;48.772;9.154;2022-12-18T05:58:27;99185.31;;;-6.78;98.93
18850;BME280;4989;48.772;9.154;2022-12-18T06:03:30;99180.69;;;-6.62;98.63
18850;BME280;4989;48.772;9.154;2022-12-18T06:08:35;99189.16;;;-6.36;99.06
18850;BME280;4989;48.772;9.154;2022-12-18T06:13:44;99193.56;;;-6.02;96.51
18850;BME280;4989;48.772;9.154;2022-12-18T06:18:46;99196.31;;;-5.45;94.21
18850;BME280;4989;48.772;9.154;2022-12-18T06:23:48;99191.25;;;-5.66;94.46
18850;BME280;4989;48.772;9.154;2022-12-18T06:28:51;99204.25;;;-5.88;95.83
18850;BME280;4989;48.772;9.154;2022-12-18T06:33:53;99206.50;;;-5.95;96.67
18850;BME280;4989;48.772;9.154;2022-12-18T06:38:58;99208.75;;;-5.89;97.79
18850;BME280;4989;48.772;9.154;2022-12-18T06:44:00;99218.31;;;-5.69;94.18
18850;BME280;4989;48.772;9.154;2022-12-18T06:49:03;99212.72;;;-5.24;92.31
18850;BME280;4989;48.772;9.154;2022-12-18T06:54:05;99219.81;;;-5.20;91.41
18850;BME280;4989;48.772;9.154;2022-12-18T06:59:08;99213.50;;;-5.24;92.64
18850;BME280;4989;48.772;9.154;2022-12-18T07:04:11;99219.19;;;-5.55;94.61
18850;BME280;4989;48.772;9.154;2022-12-18T07:09:13;99228.91;;;-5.69;97.76
18850;BME280;4989;48.772;9.154;2022-12-18T07:14:16;99241.13;;;-5.30;99.45
18850;BME280;4989;48.772;9.154;2022-12-18T07:19:18;99230.75;;;-4.37;98.52
18850;BME280;4989;48.772;9.154;2022-12-18T07:24:21;99240.69;;;-4.29;89.97
18850;BME280;4989;48.772;9.154;2022-12-18T07:29:23;99238.53;;;-4.59;91.06
18850;BME280;4989;48.772;9.154;2022-12-18T07:34:26;99250.16;;;-4.93;91.21
18850;BME280;4989;48.772;9.154;2022-12-18T07:39:28;99243.97;;;-4.70;90.56
18850;BME280;4989;48.772;9.154;2022-12-18T07:44:31;99243.47;;;-4.53;89.86
18850;BME280;4989;48.772;9.154;2022-12-18T07:49:33;99255.59;;;-4.66;91.09
18850;BME280;4989;48.772;9.154;2022-12-18T07:54:35;99255.84;;;-4.81;92.49
18850;BME280;4989;48.772;9.154;2022-12-18T07:59:38;99257.91;;;-4.78;94.14
18850;BME280;4989;48.772;9.154;2022-12-18T08:04:40;99256.28;;;-4.41;92.93
18850;BME280;4989;48.772;9.154;2022-12-18T08:09:44;99250.13;;;-4.55;93.61
18850;BME280;4989;48.772;9.154;2022-12-18T08:14:46;99267.88;;;-4.37;94.53
18850;BME280;4989;48.772;9.154;2022-12-18T08:19:48;99253.41;;;-3.98;92.32
18850;BME280;4989;48.772;9.154;2022-12-18T08:24:51;99251.25;;;-3.82;92.22
18850;BME280;4989;48.772;9.154;2022-12-18T08:29:54;99245.28;;;-3.10;90.06
18850;BME280;4989;48.772;9.154;2022-12-18T08:34:56;99253.00;;;-1.48;80.98
18850;BME280;4989;48.772;9.154;2022-12-18T08:39:58;99253.19;;;-1.35;79.04
18850;BME280;4989;48.772;9.154;2022-12-18T08:45:01;99256.72;;;-1.66;78.73
18850;BME280;4989;48.772;9.154;2022-12-18T08:50:04;99263.59;;;-2.05;80.06
18850;BME280;4989;48.772;9.154;2022-12-18T08:55:07;99252.47;;;-2.52;84.39
18850;BME280;4989;48.772;9.154;2022-12-18T09:00:11;99251.09;;;-2.49;85.07
18850;BME280;4989;48.772;9.154;2022-12-18T09:05:15;99229.84;;;-2.63;86.18
18850;BME280;4989;48.772;9.154;2022-12-18T09:10:17;99239.78;;;-2.55;85.80
18850;BME280;4989;48.772;9.154;2022-12-18T09:15:22;99241.66;;;-2.56;85.53
18850;BME280;4989;48.772;9.154;2022-12-18T09:20:24;99225.88;;;-2.74;88.81
18850;BME280;4989;48.772;9.154;2022-12-18T09:25:28;99230.59;;;-2.71;90.22
18850;BME280;4989;48.772;9.154;2022-12-18T09:30:38;99212.50;;;-2.38;90.47
18850;BME280;4989;48.772;9.154;2022-12-18T09:35:42;99218.09;;;-2.17;89.40
18850;BME280;4989;48.772;9.154;2022-12-18T09:40:47;99219.91;;;-1.95;87.33
18850;BME280;4989;48.772;9.154;2022-12-18T09:46:03;99218.84;;;-1.86;86.86
18850;BME280;4989;48.772;9.154;2022-12-18T09:51:23;99213.56;;;-1.77;88.79
18850;BME280;4989;48.772;9.154;2022-12-18T09:56:35;99200.75;;;-1.66;88.25
18850;BME280;4989;48.772;9.154;2022-12-18T10:01:37;99212.47;;;-1.67;87.25
18850;BME280;4989;48.772;9.154;2022-12-18T10:06:52;99209.09;;;-1.50;89.82
18850;BME280;4989;48.772;9.154;2022-12-18T10:28:12;99223.34;;;-1.95;93.21
18850;BME280;4989;48.772;9.154;2022-12-18T10:33:21;99216.88;;;-2.11;95.12
18850;BME280;4989;48.772;9.154;2022-12-18T10:38:25;99220.38;;;-2.02;96.37
18850;BME280;4989;48.772;9.154;2022-12-18T10:43:39;99228.38;;;-1.45;93.43
18850;BME280;4989;48.772;9.154;2022-12-18T10:54:17;99214.00;;;-0.92;89.87
18850;BME280;4989;48.772;9.154;2022-12-18T10:59:20;99220.13;;;-0.74;89.72
18850;BME280;4989;48.772;9.154;2022-12-18T11:04:29;99219.63;;;-0.67;89.72
18850;BME280;4989;48.772;9.154;2022-12-18T11:09:39;99213.25;;;-0.19;88.23
18850;BME280;4989;48.772;9.154;2022-12-18T11:14:46;99200.25;;;0.48;86.07
18850;BME280;4989;48.772;9.154;2022-12-18T11:20:03;99185.22;;;2.58;78.29
18850;BME280;4989;48.772;9.154;2022-12-18T11:25:19;99183.22;;;2.55;73.49
18850;BME280;4989;48.772;9.154;2022-12-18T11:30:37;99175.28;;;0.64;81.75
18850;BME280;4989;48.772;9.154;2022-12-18T11:35:54;99177.25;;;0.76;82.19
18850;BME280;4989;48.772;9.154;2022-12-18T11:46:26;99162.59;;;4.70;67.68
18850;BME280;4989;48.772;9.154;2022-12-18T11:51:58;99169.28;;;6.53;59.24
18850;BME280;4989;48.772;9.154;2022-12-18T11:57:13;99166.13;;;5.75;61.04
18850;BME280;4989;48.772;9.154;2022-12-18T12:23:48;99141.44;;;1.93;72.73
18850;BME280;4989;48.772;9.154;2022-12-18T12:34:33;99135.34;;;1.01;78.59
18850;BME280;4989;48.772;9.154;2022-12-18T12:39:42;99136.81;;;0.27;81.65
18850;BME280;4989;48.772;9.154;2022-12-18T12:44:56;99129.88;;;-0.89;88.06
18850;BME280;4989;48.772;9.154;2022-12-18T12:50:03;99136.97;;;-1.02;91.32
18850;BME280;4989;48.772;9.154;2022-12-18T12:55:26;99159.41;;;-1.20;91.74
18850;BME280;4989;48.772;9.154;2022-12-18T13:00:39;99154.38;;;-1.22;93.19
18850;BME280;4989;48.772;9.154;2022-12-18T13:06:00;99158.94;;;-1.22;93.46
18850;BME280;4989;48.772;9.154;2022-12-18T13:16:56;99157.25;;;-0.36;89.26
18850;BME280;4989;48.772;9.154;2022-12-18T13:22:35;99154.81;;;-0.12;87.41
18850;BME280;4989;48.772;9.154;2022-12-18T13:32:46;99143.94;;;0.23;86.32
18850;BME280;4989;48.772;9.154;2022-12-18T13:37:53;99131.59;;;0.39;85.76
18850;BME280;4989;48.772;9.154;2022-12-18T13:42:56;99131.69;;;-0.08;85.56
18850;BME280;4989;48.772;9.154;2022-12-18T13:48:21;99133.97;;;0.03;86.68
18850;BME280;4989;48.772;9.154;2022-12-18T13:53:29;99135.72;;;0.28;85.91
18850;BME280;4989;48.772;9.154;2022-12-18T13:58:33;99132.03;;;0.12;86.23
18850;BME280;4989;48.772;9.154;2022-12-18T14:03:36;99131.69;;;0.22;85.45
18850;BME280;4989;48.772;9.154;2022-12-18T14:08:43;99127.78;;;-0.19;87.92
18850;BME280;4989;48.772;9.154;2022-12-18T14:13:47;99134.13;;;-0.32;89.47
18850;BME280;4989;48.772;9.154;2022-12-18T14:18:53;99131.19;;;-0.10;89.69
18850;BME280;4989;48.772;9.154;2022-12-18T14:24:21;99125.28;;;0.35;87.04
18850;BME280;4989;48.772;9.154;2022-12-18T14:29:30;99132.41;;;0.31;86.38
18850;BME280;4989;48.772;9.154;2022-12-18T14:34:32;99132.84;;;0.33;86.58
18850;BME280;4989;48.772;9.154;2022-12-18T14:39:34;99134.16;;;0.27;87.98
18850;BME280;4989;48.772;9.154;2022-12-18T14:44:36;99140.19;;;-0.14;90.39
18850;BME280;4989;48.772;9.154;2022-12-18T14:49:58;99140.22;;;-0.23;91.29
18850;BME280;4989;48.772;9.154;2022-12-18T14:55:00;99148.81;;;-0.09;91.32
18850;BME280;4989;48.772;9.154;2022-12-18T15:00:10;99149.63;;;-0.17;91.84
18850;BME280;4989;48.772;9.154;2022-12-18T15:05:20;99143.09;;;-0.37;93.56
18850;BME280;4989;48.772;9.154;2022-12-18T15:10:30;99146.03;;;-0.21;91.27
18850;BME280;4989;48.772;9.154;2022-12-18T15:20:57;99131.94;;;-0.30;92.26
18850;BME280;4989;48.772;9.154;2022-12-18T15:26:08;99130.66;;;-0.24;92.32
18850;BME280;4989;48.772;9.154;2022-12-18T15:36:17;99124.75;;;-0.38;93.05
18850;BME280;4989;48.772;9.154;2022-12-18T15:41:27;99131.84;;;-0.13;91.19
18850;BME280;4989;48.772;9.154;2022-12-18T15:46:30;99129.28;;;-0.30;91.71
18850;BME280;4989;48.772;9.154;2022-12-18T15:51:35;99134.28;;;-0.84;94.95
18850;BME280;4989;48.772;9.154;2022-12-18T15:56:39;99131.47;;;-0.97;95.73
18850;BME280;4989;48.772;9.154;2022-12-18T16:02:00;99133.78;;;-0.78;95.07
18850;BME280;4989;48.772;9.154;2022-12-18T16:07:03;99121.75;;;-0.46;93.48
18850;BME280;4989;48.772;9.154;2022-12-18T16:12:19;99131.13;;;-0.86;93.66
18850;BME280;4989;48.772;9.154;2022-12-18T16:17:23;99141.34;;;-0.88;92.82
18850;BME280;4989;48.772;9.154;2022-12-18T16:22:29;99132.31;;;-0.58;93.53
18850;BME280;4989;48.772;9.154;2022-12-18T16:27:34;99132.66;;;-0.68;92.28
18850;BME280;4989;48.772;9.154;2022-12-18T16:32:37;99119.78;;;-0.57;91.45
18850;BME280;4989;48.772;9.154;2022-12-18T16:37:40;99121.31;;;-0.48;91.44
18850;BME280;4989;48.772;9.154;2022-12-18T16:42:44;99132.03;;;-0.65;90.26
18850;BME280;4989;48.772;9.154;2022-12-18T16:47:47;99123.59;;;-0.29;89.45
18850;BME280;4989;48.772;9.154;2022-12-18T16:52:49;99121.13;;;-1.07;91.47
18850;BME280;4989;48.772;9.154;2022-12-18T16:57:52;99123.94;;;-0.95;92.38
18850;BME280;4989;48.772;9.154;2022-12-18T17:02:55;99120.97;;;-1.02;91.67
18850;BME280;4989;48.772;9.154;2022-12-18T17:07:58;99109.13;;;-0.66;91.84
18850;BME280;4989;48.772;9.154;2022-12-18T17:13:00;99102.78;;;-0.53;89.89
18850;BME280;4989;48.772;9.154;2022-12-18T17:18:03;99107.63;;;-0.46;89.86
18850;BME280;4989;48.772;9.154;2022-12-18T17:23:06;99095.66;;;-0.02;87.13
18850;BME280;4989;48.772;9.154;2022-12-18T17:28:08;99086.91;;;-0.11;85.65
18850;BME280;4989;48.772;9.154;2022-12-18T17:33:11;99087.81;;;-0.07;85.45
18850;BME280;4989;48.772;9.154;2022-12-18T17:38:13;99089.09;;;-0.89;89.75
18850;BME280;4989;48.772;9.154;2022-12-18T17:43:16;99088.22;;;-0.64;89.53
18850;BME280;4989;48.772;9.154;2022-12-18T17:48:21;99098.03;;;-0.38;88.41
18850;BME280;4989;48.772;9.154;2022-12-18T17:53:23;99092.28;;;-0.58;87.58
18850;BME280;4989;48.772;9.154;2022-12-18T17:58:27;99091.13;;;-0.95;90.57
18850;BME280;4989;48.772;9.154;2022-12-18T18:03:31;99091.25;;;-0.74;89.71
18850;BME280;4989;48.772;9.154;2022-12-18T18:08:35;99094.44;;;-0.89;90.75
18850;BME280;4989;48.772;9.154;2022-12-18T18:13:38;99085.50;;;-0.47;89.17
18850;BME280;4989;48.772;9.154;2022-12-18T18:19:00;99081.66;;;-0.28;86.89
18850;BME280;4989;48.772;9.154;2022-12-18T18:24:07;99075.28;;;-0.44;88.11
18850;BME280;4989;48.772;9.154;2022-12-18T18:29:15;99080.19;;;-0.17;86.43
18850;BME280;4989;48.772;9.154;2022-12-18T18:34:24;99069.97;;;-0.15;87.44
18850;BME280;4989;48.772;9.154;2022-12-18T18:39:27;99068.94;;;-0.02;85.71
18850;BME280;4989;48.772;9.154;2022-12-18T18:44:30;99064.66;;;-1.09;91.07
18850;BME280;4989;48.772;9.154;2022-12-18T18:49:33;99066.50;;;-1.01;93.18
18850;BME280;4989;48.772;9.154;2022-12-18T18:54:35;99065.38;;;-0.91;92.64
18850;BME280;4989;48.772;9.154;2022-12-18T18:59:38;99060.84;;;-0.90;92.47
18850;BME280;4989;48.772;9.154;2022-12-18T19:04:41;99063.97;;;-0.88;93.57
18850;BME280;4989;48.772;9.154;2022-12-18T19:09:47;99067.13;;;-1.04;93.85
18850;BME280;4989;48.772;9.154;2022-12-18T19:14:53;99058.34;;;-0.96;94.43
18850;BME280;4989;48.772;9.154;2022-12-18T19:19:56;99052.09;;;-1.00;94.40
18850;BME280;4989;48.772;9.154;2022-12-18T19:24:59;99033.88;;;-0.98;95.02
18850;BME280;4989;48.772;9.154;2022-12-18T19:30:01;99036.97;;;-0.78;94.12
18850;BME280;4989;48.772;9.154;2022-12-18T19:35:04;99022.88;;;-0.87;98.39
18850;BME280;4989;48.772;9.154;2022-12-18T19:40:07;99020.22;;;-0.58;95.09
18850;BME280;4989;48.772;9.154;2022-12-18T19:45:13;99026.41;;;-0.36;94.81
18850;BME280;4989;48.772;9.154;2022-12-18T19:50:16;99013.44;;;0.04;93.30
18850;BME280;4989;48.772;9.154;2022-12-18T19:55:19;99010.81;;;0.16;91.80
18850;BME280;4989;48.772;9.154;2022-12-18T20:00:21;98999.41;;;0.28;91.61
18850;BME280;4989;48.772;9.154;2022-12-18T20:05:24;98995.50;;;0.59;90.05
18850;BME280;4989;48.772;9.154;2022-12-18T20:10:26;98989.47;;;0.50;90.04
18850;BME280;4989;48.772;9.154;2022-12-18T20:15:29;98989.50;;;0.62;89.09
18850;BME280;4989;48.772;9.154;2022-12-18T20:20:31;98980.13;;;0.56;88.98
18850;BME280;4989;48.772;9.154;2022-12-18T20:25:40;98971.94;;;0.40;89.83
18850;BME280;4989;48.772;9.154;2022-12-18T20:30:42;98963.00;;;0.69;89.15
18850;BME280;4989;48.772;9.154;2022-12-18T20:35:44;98943.94;;;0.25;90.81
18850;BME280;4989;48.772;9.154;2022-12-18T20:40:46;98943.41;;;0.11;92.17
18850;BME280;4989;48.772;9.154;2022-12-18T20:45:49;98956.22;;;0.38;94.09
18850;BME280;4989;48.772;9.154;2022-12-18T20:51:04;98975.47;;;0.65;91.68
18850;BME280;4989;48.772;9.154;2022-12-18T20:56:16;98973.38;;;0.37;89.56
18850;BME280;4989;48.772;9.154;2022-12-18T21:01:24;98968.41;;;0.27;92.07
18850;BME280;4989;48.772;9.154;2022-12-18T21:06:29;98935.41;;;0.44;92.89
18850;BME280;4989;48.772;9.154;2022-12-18T21:11:32;98969.22;;;0.28;92.03
18850;BME280;4989;48.772;9.154;2022-12-18T21:16:55;98975.13;;;0.00;92.55
18850;BME280;4989;48.772;9.154;2022-12-18T21:21:58;98969.03;;;-0.09;95.06
18850;BME280;4989;48.772;9.154;2022-12-18T21:27:00;98967.75;;;0.30;92.74
18850;BME280;4989;48.772;9.154;2022-12-18T21:32:03;98972.44;;;0.00;94.43
18850;BME280;4989;48.772;9.154;2022-12-18T21:37:06;98966.38;;;-0.30;97.41
18850;BME280;4989;48.772;9.154;2022-12-18T21:42:12;98966.56;;;-0.35;98.76
18850;BME280;4989;48.772;9.154;2022-12-18T21:47:33;98967.22;;;0.04;96.52
18850;BME280;4989;48.772;9.154;2022-12-18T21:52:35;98946.81;;;0.20;95.23
18850;BME280;4989;48.772;9.154;2022-12-18T21:57:37;98945.31;;;0.43;94.83
18850;BME280;4989;48.772;9.154;2022-12-18T22:02:40;98950.47;;;0.49;93.34
18850;BME280;4989;48.772;9.154;2022-12-18T22:07:42;98953.63;;;0.75;91.83
18850;BME280;4989;48.772;9.154;2022-12-18T22:12:44;98933.81;;;0.64;91.75
18850;BME280;4989;48.772;9.154;2022-12-18T22:17:46;98926.63;;;0.56;93.13
18850;BME280;4989;48.772;9.154;2022-12-18T22:22:48;98932.69;;;0.77;92.48
18850;BME280;4989;48.772;9.154;2022-12-18T22:27:52;98933.16;;;0.91;91.82
18850;BME280;4989;48.772;9.154;2022-12-18T22:33:13;98942.88;;;1.08;89.24
18850;BME280;4989;48.772;9.154;2022-12-18T22:38:15;98929.59;;;1.00;90.03
18850;BME280;4989;48.772;9.154;2022-12-18T22:43:17;98921.72;;;0.45;92.92
18850;BME280;4989;48.772;9.154;2022-12-18T22:48:19;98927.75;;;0.55;93.17
18850;BME280;4989;48.772;9.154;2022-12-18T22:53:21;98928.84;;;0.54;93.19
18850;BME280;4989;48.772;9.154;2022-12-18T22:58:24;98941.06;;;0.76;92.69
18850;BME280;4989;48.772;9.154;2022-12-18T23:03:27;98948.09;;;1.05;90.75
18850;BME280;4989;48.772;9.154;2022-12-18T23:08:29;98953.25;;;0.98;91.95
18850;BME280;4989;48.772;9.154;2022-12-18T23:13:33;98962.94;;;1.14;90.24
18850;BME280;4989;48.772;9.154;2022-12-18T23:18:36;98949.63;;;0.69;93.75
18850;BME280;4989;48.772;9.154;2022-12-18T23:23:38;98949.25;;;1.16;91.40
18850;BME280;4989;48.772;9.154;2022-12-18T23:28:41;98939.41;;;1.45;89.43
18850;BME280;4989;48.772;9.154;2022-12-18T23:33:45;98940.50;;;1.56;88.73
18850;BME280;4989;48.772;9.154;2022-12-18T23:38:50;98938.47;;;1.65;88.76
18850;BME280;4989;48.772;9.154;2022-12-18T23:43:53;98932.69;;;1.51;89.16
18850;BME280;4989;48.772;9.154;2022-12-18T23:49:01;98915.84;;;1.50;89.76
18850;BME280;4989;48.772;9.154;2022-12-18T23:54:03;98925.09;;;1.53;90.53
18850;BME280;4989;48.772;9.154;2022-12-18T23:59:05;98931.53;;;1.76;89.20
